Time;durP1;ratioP1;P1;durP2;ratioP2;P2;SDS_P1;SDS_P2;PMS_P1;PMS_P2;Temp;Humidity;BMP_temperature;BMP_pressure;BME280_temperature;BME280_humidity;BME280_pressure;Samples;Min_cycle;Max_cycle;Signal;HPM_P1;HPM_P2
2024/01/30 00:01:23;;;;;;;9.70;6.73;;;2.40;10.60;;;;;;4971928;28;20182;-69
2024/01/30 00:03:50;;;;;;;9.73;7.03;;;2.40;10.70;;;;;;4975150;28;20214;-68
2024/01/30 00:06:18;;;;;;;9.73;6.75;;;2.30;11.70;;;;;;4975368;28;20176;-68
2024/01/30 00:08:46;;;;;;;11.30;6.43;;;2.20;12.40;;;;;;4975572;28;20225;-69
2024/01/30 00:11:12;;;;;;;11.32;7.15;;;2.20;13.00;;;;;;4975480;28;20178;-69
2024/01/30 00:13:37;;;;;;;16.20;8.03;;;2.20;13.10;;;;;;4975436;28;20211;-68
2024/01/30 00:16:03;;;;;;;8.50;6.83;;;2.20;13.30;;;;;;4975159;28;20211;-69
2024/01/30 00:18:29;;;;;;;13.95;8.52;;;2.10;13.50;;;;;;4973975;28;20298;-67
2024/01/30 00:20:54;;;;;;;10.23;6.53;;;2.10;14.00;;;;;;4975511;28;20238;-68
2024/01/30 00:23:20;;;;;;;12.20;7.67;;;2.10;14.10;;;;;;4975230;28;20182;-69
2024/01/30 00:25:45;;;;;;;13.00;8.53;;;2.00;14.70;;;;;;4975008;28;20191;-69
2024/01/30 00:28:11;;;;;;;8.77;6.80;;;2.00;15.40;;;;;;4975030;28;20204;-69
2024/01/30 00:30:36;;;;;;;9.27;7.90;;;2.00;15.60;;;;;;4975037;28;20272;-69
2024/01/30 00:33:02;;;;;;;10.70;6.57;;;2.00;15.50;;;;;;4975252;28;20184;-69
2024/01/30 00:35:29;;;;;;;10.13;7.07;;;2.00;15.60;;;;;;4975048;28;20190;-68
2024/01/30 00:37:54;;;;;;;12.27;8.20;;;2.00;16.40;;;;;;4974925;28;20192;-68
2024/01/30 00:40:20;;;;;;;14.17;6.43;;;2.00;16.70;;;;;;4974832;28;20252;-68
2024/01/30 00:42:45;;;;;;;8.60;6.73;;;2.00;16.80;;;;;;4975130;28;20186;-67
2024/01/30 00:45:17;;;;;;;12.20;8.27;;;2.00;16.40;;;;;;4974585;28;20179;-68
2024/01/30 00:47:43;;;;;;;10.38;7.57;;;2.00;16.30;;;;;;4974802;28;20687;-68
2024/01/30 00:50:09;;;;;;;10.53;8.07;;;2.10;16.70;;;;;;4975164;28;20186;-68
2024/01/30 00:52:35;;;;;;;10.50;7.77;;;2.10;15.80;;;;;;4975211;28;20427;-68
2024/01/30 00:55:02;;;;;;;10.57;8.13;;;2.10;16.40;;;;;;4975092;28;20414;-69
2024/01/30 00:57:28;;;;;;;11.10;7.75;;;2.20;15.20;;;;;;4975330;28;20477;-67
2024/01/30 00:59:53;;;;;;;9.60;6.50;;;2.20;14.90;;;;;;4975896;28;20198;-71
2024/01/30 01:02:19;;;;;;;13.20;8.50;;;2.10;15.40;;;;;;4979037;28;20631;-68
2024/01/30 01:04:44;;;;;;;10.80;6.93;;;2.10;15.40;;;;;;4981064;28;20173;-69
2024/01/30 01:07:11;;;;;;;11.23;7.47;;;2.00;14.00;;;;;;4981892;28;20222;-69
2024/01/30 01:09:36;;;;;;;9.90;7.25;;;2.00;14.40;;;;;;4979860;28;20191;-68
2024/01/30 01:12:03;;;;;;;10.60;7.60;;;2.00;14.30;;;;;;4977319;28;20182;-68
2024/01/30 01:14:28;;;;;;;10.93;7.35;;;2.00;14.00;;;;;;4973808;28;20642;-68
2024/01/30 01:16:54;;;;;;;10.30;7.73;;;1.90;14.50;;;;;;4974091;28;20329;-68
2024/01/30 01:19:19;;;;;;;9.90;7.50;;;1.80;15.70;;;;;;4974152;28;20265;-67
2024/01/30 01:21:45;;;;;;;8.90;6.87;;;1.80;16.10;;;;;;4974336;28;20175;-68
2024/01/30 01:24:10;;;;;;;10.07;6.40;;;1.80;16.40;;;;;;4974276;28;20641;-68
2024/01/30 01:26:36;;;;;;;9.00;6.03;;;1.80;16.30;;;;;;4973796;28;20253;-68
2024/01/30 01:29:04;;;;;;;10.90;7.00;;;;;;;;;;4974039;28;20183;-69
2024/01/30 01:31:30;;;;;;;10.40;7.35;;;;;;;;;;4974308;28;20202;-68
2024/01/30 01:33:56;;;;;;;8.60;6.88;;;;;;;;;;4973952;28;20602;-69
2024/01/30 01:36:22;;;;;;;16.27;8.23;;;;;;;;;;4973862;28;20201;-68
2024/01/30 01:38:48;;;;;;;10.48;7.45;;;;;;;;;;4974142;28;20439;-68
2024/01/30 01:41:14;;;;;;;10.93;7.10;;;1.70;17.30;;;;;;4974010;28;20175;-68
2024/01/30 01:43:39;;;;;;;9.83;6.50;;;1.80;18.00;;;;;;4973816;28;20421;-68
2024/01/30 01:46:06;;;;;;;11.70;7.00;;;1.80;17.40;;;;;;4973710;28;20254;-67
2024/01/30 01:48:32;;;;;;;9.45;7.47;;;1.80;16.80;;;;;;4972387;28;20619;-69
2024/01/30 01:50:59;;;;;;;12.20;7.13;;;1.80;17.00;;;;;;4973678;28;20193;-68
2024/01/30 01:53:25;;;;;;;9.57;6.13;;;1.80;16.50;;;;;;4973733;28;20431;-69
2024/01/30 01:55:52;;;;;;;8.30;7.13;;;1.80;16.70;;;;;;4973449;28;20229;-68
2024/01/30 01:58:21;;;;;;;11.68;6.30;;;1.80;16.90;;;;;;4973568;28;20279;-69
2024/01/30 02:00:46;;;;;;;8.93;5.53;;;1.80;16.70;;;;;;4972310;28;20174;-68
2024/01/30 02:03:15;;;;;;;7.57;5.50;;;1.80;16.80;;;;;;4973574;28;20281;-68
2024/01/30 02:05:41;;;;;;;8.90;5.57;;;1.80;17.00;;;;;;4973256;28;20511;-68
2024/01/30 02:08:08;;;;;;;8.27;6.05;;;1.80;16.10;;;;;;4973442;28;20213;-68
2024/01/30 02:10:34;;;;;;;10.50;6.32;;;1.80;16.70;;;;;;4973233;28;20174;-67
2024/01/30 02:12:59;;;;;;;7.82;5.93;;;1.80;16.50;;;;;;4973417;28;20184;-69
2024/01/30 02:15:25;;;;;;;7.40;6.03;;;1.70;16.70;;;;;;4973044;28;20179;-69
2024/01/30 02:17:50;;;;;;;8.50;6.33;;;1.70;16.70;;;;;;4973025;28;20205;-69
2024/01/30 02:20:16;;;;;;;6.30;5.70;;;1.70;16.80;;;;;;4973212;28;20216;-69
2024/01/30 02:22:43;;;;;;;13.40;7.60;;;1.70;16.70;;;;;;4973086;28;20409;-69
2024/01/30 02:25:08;;;;;;;10.55;6.63;;;1.70;16.30;;;;;;4972427;28;20257;-69
2024/01/30 02:27:34;;;;;;;11.87;6.97;;;1.70;16.90;;;;;;4972477;28;20695;-69
2024/01/30 02:29:59;;;;;;;9.00;5.67;;;1.70;16.70;;;;;;4972924;28;20512;-68
2024/01/30 02:32:25;;;;;;;6.20;5.50;;;1.60;16.80;;;;;;4972963;28;20187;-68
2024/01/30 02:34:50;;;;;;;12.40;6.23;;;1.60;16.70;;;;;;4973031;28;20613;-68
2024/01/30 02:37:16;;;;;;;9.00;6.60;;;1.60;17.10;;;;;;4972548;28;20716;-68
2024/01/30 02:39:42;;;;;;;8.63;5.45;;;1.60;17.10;;;;;;4972593;28;20193;-69
2024/01/30 02:42:08;;;;;;;10.13;6.40;;;1.60;16.60;;;;;;4972894;28;20573;-68
2024/01/30 02:44:33;;;;;;;8.30;6.20;;;1.60;17.20;;;;;;4972994;28;20177;-70
2024/01/30 02:46:59;;;;;;;8.80;6.47;;;1.60;17.20;;;;;;4972435;28;20225;-68
2024/01/30 02:49:24;;;;;;;9.27;6.10;;;1.60;16.50;;;;;;4972599;28;20188;-69
2024/01/30 02:51:51;;;;;;;8.50;4.97;;;1.60;16.20;;;;;;4972532;28;20184;-69
2024/01/30 02:54:16;;;;;;;8.90;7.78;;;1.50;16.20;;;;;;4972534;28;20183;-68
2024/01/30 02:56:42;;;;;;;9.43;5.70;;;1.40;16.70;;;;;;4972378;28;20696;-68
2024/01/30 02:59:07;;;;;;;8.70;7.00;;;1.40;17.00;;;;;;4972349;28;20282;-67
2024/01/30 03:01:33;;;;;;;9.67;6.13;;;1.30;17.60;;;;;;4972694;28;20626;-68
2024/01/30 03:03:58;;;;;;;6.83;5.50;;;1.30;17.80;;;;;;4972686;28;20189;-68
2024/01/30 03:06:24;;;;;;;10.20;5.70;;;1.30;17.80;;;;;;4972376;28;20173;-68
2024/01/30 03:08:49;;;;;;;11.27;6.47;;;1.20;17.70;;;;;;4972191;28;20204;-69
2024/01/30 03:11:15;;;;;;;7.93;5.90;;;1.20;18.90;;;;;;4972382;28;20177;-68
2024/01/30 03:13:40;;;;;;;7.23;5.13;;;1.20;18.90;;;;;;4972479;28;20193;-68
2024/01/30 03:16:06;;;;;;;10.30;6.00;;;1.20;19.10;;;;;;4972624;28;20249;-69
2024/01/30 03:18:31;;;;;;;8.47;5.53;;;1.30;18.90;;;;;;4973234;28;20197;-69
2024/01/30 03:20:57;;;;;;;9.20;6.10;;;1.30;18.50;;;;;;4973264;28;20661;-69
2024/01/30 03:23:23;;;;;;;9.77;6.57;;;1.40;18.00;;;;;;4972294;28;20178;-69
2024/01/30 03:25:48;;;;;;;7.93;6.00;;;1.40;17.80;;;;;;4972620;28;20638;-68
2024/01/30 03:28:14;;;;;;;7.30;4.80;;;1.50;17.90;;;;;;4972648;28;20205;-68
2024/01/30 03:30:39;;;;;;;6.53;4.90;;;1.50;17.40;;;;;;4972205;28;20183;-68
2024/01/30 03:33:05;;;;;;;7.87;4.63;;;1.40;16.80;;;;;;4972386;28;20544;-68
2024/01/30 03:35:30;;;;;;;14.20;7.00;;;1.40;16.90;;;;;;4972021;28;20647;-68
2024/01/30 03:37:56;;;;;;;8.00;4.87;;;1.40;16.40;;;;;;4974113;28;20209;-68
2024/01/30 03:40:21;;;;;;;7.10;4.80;;;1.30;16.80;;;;;;4975969;28;20174;-68
2024/01/30 03:42:47;;;;;;;7.53;5.60;;;1.30;16.90;;;;;;4976125;28;20190;-68
2024/01/30 03:45:12;;;;;;;9.10;4.90;;;1.30;16.70;;;;;;4975795;28;20294;-68
2024/01/30 03:47:38;;;;;;;6.73;5.30;;;1.20;17.60;;;;;;4975966;28;20696;-69
2024/01/30 03:50:04;;;;;;;9.23;4.63;;;1.20;16.70;;;;;;4976005;28;20646;-68
2024/01/30 03:52:30;;;;;;;6.85;5.63;;;1.20;16.60;;;;;;4975764;28;20174;-69
2024/01/30 03:54:55;;;;;;;11.87;6.00;;;1.10;17.70;;;;;;4974361;28;20615;-68
2024/01/30 03:57:21;;;;;;;7.40;6.13;;;1.10;17.70;;;;;;4974215;28;20219;-68
2024/01/30 03:59:47;;;;;;;7.38;4.88;;;1.10;17.70;;;;;;4975577;28;20186;-68
2024/01/30 04:02:13;;;;;;;6.23;4.27;;;1.10;17.70;;;;;;4975733;28;20546;-69
2024/01/30 04:04:38;;;;;;;6.10;4.40;;;1.00;17.60;;;;;;4975563;28;20185;-69
2024/01/30 04:07:04;;;;;;;8.73;5.23;;;1.00;18.10;;;;;;4975190;28;20210;-69
2024/01/30 04:09:29;;;;;;;7.83;4.87;;;1.00;17.60;;;;;;4975357;28;20185;-68
2024/01/30 04:11:55;;;;;;;7.07;5.30;;;0.90;18.40;;;;;;4975438;28;20187;-68
2024/01/30 04:14:20;;;;;;;6.03;4.83;;;0.90;18.70;;;;;;4975498;28;20204;-68
2024/01/30 04:16:46;;;;;;;7.73;5.63;;;0.90;19.60;;;;;;4975248;28;20218;-69
2024/01/30 04:19:11;;;;;;;22.03;5.27;;;0.90;18.90;;;;;;4975259;28;20629;-68
2024/01/30 04:21:37;;;;;;;6.27;4.30;;;0.90;20.30;;;;;;4975446;28;20552;-69
2024/01/30 04:24:02;;;;;;;10.20;5.37;;;0.90;19.60;;;;;;4975149;28;20199;-69
2024/01/30 04:26:28;;;;;;;7.13;5.57;;;;;;;;;;4973644;28;20191;-69
2024/01/30 04:28:54;;;;;;;7.73;5.33;;;0.70;21.00;;;;;;4975082;28;20224;-69
2024/01/30 04:31:19;;;;;;;7.67;5.27;;;0.70;21.50;;;;;;4975548;28;20518;-69
2024/01/30 04:33:45;;;;;;;9.03;5.60;;;0.70;21.60;;;;;;4975278;28;20197;-69
2024/01/30 04:36:11;;;;;;;9.80;5.83;;;0.70;22.70;;;;;;4974990;28;20228;-69
2024/01/30 04:38:38;;;;;;;8.23;5.80;;;0.60;22.60;;;;;;4974706;28;20205;-68
2024/01/30 04:41:04;;;;;;;9.27;5.80;;;0.60;23.40;;;;;;4974940;28;20192;-68
2024/01/30 04:43:30;;;;;;;10.50;5.53;;;0.60;23.20;;;;;;4975111;28;20178;-69
2024/01/30 04:45:55;;;;;;;9.00;5.15;;;0.60;22.80;;;;;;4974586;28;20418;-69
2024/01/30 04:48:21;;;;;;;6.40;5.30;;;0.60;23.00;;;;;;4974342;28;20193;-68
2024/01/30 04:50:46;;;;;;;6.50;5.47;;;0.60;22.90;;;;;;4973081;28;20221;-69
2024/01/30 04:53:12;;;;;;;9.97;5.90;;;0.60;22.80;;;;;;4974627;28;20182;-68
2024/01/30 04:55:37;;;;;;;10.73;5.53;;;0.50;22.50;;;;;;4974399;28;20527;-69
2024/01/30 04:58:03;;;;;;;9.83;4.77;;;0.50;23.00;;;;;;4974433;28;20198;-68
2024/01/30 05:00:28;;;;;;;7.93;4.43;;;0.50;23.40;;;;;;4974372;28;20184;-69
2024/01/30 05:02:57;;;;;;;7.80;5.07;;;0.50;23.00;;;;;;4974612;28;20313;-68
2024/01/30 05:05:22;;;;;;;9.77;6.10;;;0.50;23.10;;;;;;4974380;28;20502;-68
2024/01/30 05:07:48;;;;;;;7.50;5.40;;;0.60;22.80;;;;;;4974299;28;20222;-68
2024/01/30 05:10:14;;;;;;;7.50;5.10;;;0.60;21.70;;;;;;4974341;28;20177;-67
2024/01/30 05:12:40;;;;;;;10.50;5.57;;;0.60;21.50;;;;;;4974278;28;20197;-68
2024/01/30 05:15:06;;;;;;;8.13;5.87;;;0.60;22.30;;;;;;4974186;28;20189;-69
2024/01/30 05:17:32;;;;;;;10.60;5.60;;;0.60;22.70;;;;;;4974488;28;20244;-69
2024/01/30 05:19:57;;;;;;;6.50;4.90;;;0.60;22.30;;;;;;4974080;28;20234;-68
2024/01/30 05:22:23;;;;;;;8.27;4.70;;;0.70;22.00;;;;;;4974241;28;20794;-69
2024/01/30 05:24:48;;;;;;;11.67;6.13;;;0.70;21.60;;;;;;4974306;28;20177;-68
2024/01/30 05:27:14;;;;;;;5.70;4.93;;;0.70;20.70;;;;;;4973939;28;20317;-69
2024/01/30 05:29:40;;;;;;;7.80;4.77;;;0.80;21.30;;;;;;4974079;28;20182;-69
2024/01/30 05:32:06;;;;;;;4.70;3.83;;;0.80;20.80;;;;;;4974045;28;20713;-68
2024/01/30 05:34:32;;;;;;;6.77;4.77;;;0.80;19.50;;;;;;4974022;28;20185;-69
2024/01/30 05:36:58;;;;;;;7.55;5.22;;;0.80;19.40;;;;;;4973469;28;20220;-69
2024/01/30 05:39:23;;;;;;;8.60;5.60;;;0.80;19.10;;;;;;4973849;28;20175;-69
2024/01/30 05:41:49;;;;;;;6.90;5.43;;;0.70;18.70;;;;;;4974234;28;20179;-69
2024/01/30 05:44:14;;;;;;;7.50;4.67;;;0.70;19.10;;;;;;4973678;28;20312;-68
2024/01/30 05:46:40;;;;;;;9.97;4.43;;;0.70;18.70;;;;;;4973593;28;20185;-69
2024/01/30 05:49:05;;;;;;;8.50;6.07;;;0.70;19.40;;;;;;4973741;28;20174;-69
2024/01/30 05:51:31;;;;;;;9.10;5.07;;;0.60;19.40;;;;;;4973568;28;20696;-69
2024/01/30 05:53:57;;;;;;;7.50;5.00;;;0.60;19.50;;;;;;4973571;28;20189;-68
2024/01/30 05:56:22;;;;;;;9.20;5.47;;;0.60;19.80;;;;;;4973509;28;20582;-69
2024/01/30 05:58:50;;;;;;;6.57;4.50;;;0.60;19.60;;;;;;4972063;28;20202;-69
2024/01/30 06:01:15;;;;;;;9.50;5.68;;;0.60;19.20;;;;;;4973525;28;20280;-69
2024/01/30 06:03:43;;;;;;;9.80;5.90;;;0.60;19.40;;;;;;4973513;28;20261;-69
2024/01/30 06:06:08;;;;;;;6.03;5.28;;;0.70;19.50;;;;;;4973274;28;20306;-69
2024/01/30 06:08:34;;;;;;;7.27;5.07;;;0.70;19.30;;;;;;4972121;28;20221;-69
2024/01/30 06:11:00;;;;;;;10.23;6.20;;;0.70;18.60;;;;;;4973393;28;20185;-68
2024/01/30 06:13:26;;;;;;;5.90;4.32;;;0.80;18.00;;;;;;4973240;28;20626;-69
2024/01/30 06:15:52;;;;;;;9.40;5.67;;;0.80;17.50;;;;;;4973135;28;20265;-69
2024/01/30 06:18:17;;;;;;;9.90;5.03;;;0.90;16.70;;;;;;4973066;28;20936;-68
2024/01/30 06:20:43;;;;;;;6.80;4.60;;;0.90;17.10;;;;;;4972966;28;20721;-69
2024/01/30 06:23:08;;;;;;;9.00;5.90;;;0.90;15.80;;;;;;4972977;28;20722;-69
2024/01/30 06:25:34;;;;;;;5.63;4.27;;;1.00;16.00;;;;;;4972914;28;20185;-69
2024/01/30 06:27:59;;;;;;;5.83;4.67;;;1.00;15.30;;;;;;4973048;28;20208;-69
2024/01/30 06:30:25;;;;;;;10.60;5.03;;;1.10;14.90;;;;;;4973128;28;20196;-68
2024/01/30 06:32:50;;;;;;;7.57;4.70;;;1.10;14.70;;;;;;4972980;28;20181;-69
2024/01/30 06:35:17;;;;;;;7.93;4.50;;;1.10;14.20;;;;;;4972618;28;20552;-69
2024/01/30 06:37:43;;;;;;;6.32;5.00;;;1.00;13.70;;;;;;4972790;28;20201;-69
2024/01/30 06:40:09;;;;;;;6.83;5.70;;;0.90;15.00;;;;;;4972653;28;20182;-68
2024/01/30 06:42:34;;;;;;;8.68;6.00;;;0.90;15.20;;;;;;4973240;28;20706;-69
2024/01/30 06:45:00;;;;;;;7.20;5.40;;;0.90;16.20;;;;;;4972655;28;20181;-68
2024/01/30 06:47:25;;;;;;;9.40;6.63;;;0.90;17.30;;;;;;4972653;28;20679;-69
2024/01/30 06:49:51;;;;;;;10.43;7.03;;;0.90;17.50;;;;;;4972582;28;20186;-69
2024/01/30 06:52:16;;;;;;;13.30;7.40;;;0.80;17.50;;;;;;4971324;28;20185;-68
2024/01/30 06:54:42;;;;;;;13.07;9.00;;;0.80;18.30;;;;;;4971503;28;20185;-69
2024/01/30 06:57:11;;;;;;;15.87;8.30;;;0.80;19.80;;;;;;4972320;28;20264;-68
2024/01/30 06:59:37;;;;;;;10.60;8.30;;;0.80;19.40;;;;;;4973541;28;20177;-70
2024/01/30 07:02:03;;;;;;;14.20;7.70;;;0.80;20.50;;;;;;4973580;28;20471;-69
2024/01/30 07:04:28;;;;;;;9.60;7.50;;;0.80;20.00;;;;;;4973184;28;20932;-69
2024/01/30 07:06:54;;;;;;;7.40;5.90;;;0.80;20.20;;;;;;4973307;28;20224;-68
2024/01/30 07:09:19;;;;;;;6.57;5.20;;;0.80;18.60;;;;;;4973053;28;20546;-68
2024/01/30 07:11:45;;;;;;;7.57;6.57;;;0.90;17.50;;;;;;4972334;28;20466;-68
2024/01/30 07:14:10;;;;;;;20.53;5.80;;;0.90;17.00;;;;;;4972555;28;20618;-68
2024/01/30 07:16:36;;;;;;;8.43;6.27;;;0.90;16.90;;;;;;4972458;28;20258;-68
2024/01/30 07:19:02;;;;;;;7.67;5.53;;;1.00;15.90;;;;;;4972269;28;20569;-68
2024/01/30 07:21:28;;;;;;;10.67;6.87;;;1.00;15.50;;;;;;4972209;28;20174;-68
2024/01/30 07:23:55;;;;;;;11.67;5.17;;;1.10;14.80;;;;;;4970733;28;20189;-68
2024/01/30 07:26:20;;;;;;;9.52;4.75;;;1.20;14.20;;;;;;4972228;28;20445;-68
2024/01/30 07:28:46;;;;;;;7.70;4.50;;;1.30;13.50;;;;;;4972553;28;20248;-68
2024/01/30 07:31:11;;;;;;;13.30;7.20;;;1.50;11.90;;;;;;4972541;28;20190;-68
2024/01/30 07:33:37;;;;;;;11.27;5.87;;;1.60;11.00;;;;;;4972368;28;20182;-69
2024/01/30 07:36:03;;;;;;;10.53;5.83;;;1.60;10.10;;;;;;4972074;28;20228;-68
2024/01/30 07:38:31;;;;;;;6.40;4.60;;;1.70;9.50;;;;;;4972190;28;20199;-68
2024/01/30 07:40:57;;;;;;;8.85;6.20;;;1.70;9.50;;;;;;4972276;28;20634;-67
2024/01/30 07:43:22;;;;;;;10.20;5.77;;;1.80;9.60;;;;;;4972293;28;20190;-68
2024/01/30 07:45:48;;;;;;;8.43;5.87;;;1.90;9.10;;;;;;4970598;28;20201;-67
2024/01/30 07:48:14;;;;;;;9.03;5.20;;;2.00;8.10;;;;;;4972025;28;20282;-68
2024/01/30 07:50:39;;;;;;;7.40;5.47;;;2.20;7.10;;;;;;4972659;28;20272;-69
2024/01/30 07:53:05;;;;;;;10.90;6.73;;;2.30;5.80;;;;;;4972240;28;20182;-68
2024/01/30 07:55:32;;;;;;;7.87;5.80;;;2.40;5.60;;;;;;4971804;28;20206;-68
2024/01/30 07:57:58;;;;;;;7.55;5.22;;;2.40;5.50;;;;;;4970480;28;20220;-68
2024/01/30 08:00:24;;;;;;;6.75;5.57;;;2.50;5.70;;;;;;4971981;28;20176;-68
2024/01/30 08:02:49;;;;;;;8.50;6.97;;;2.60;4.30;;;;;;4971881;28;20625;-68
2024/01/30 08:05:15;;;;;;;9.10;5.70;;;2.70;4.10;;;;;;4971818;28;20186;-67
2024/01/30 08:07:45;;;;;;;9.10;6.30;;;2.80;3.90;;;;;;4971852;28;20216;-67
2024/01/30 08:10:12;;;;;;;9.70;6.38;;;2.90;3.10;;;;;;4972167;28;20612;-67
2024/01/30 08:12:38;;;;;;;16.70;8.73;;;3.00;2.20;;;;;;4971913;28;20195;-68
2024/01/30 08:15:04;;;;;;;24.70;14.47;;;3.10;1.90;;;;;;4971659;28;20520;-68
2024/01/30 08:17:30;;;;;;;21.90;12.35;;;3.20;1.60;;;;;;4971641;28;20293;-67
2024/01/30 08:19:55;;;;;;;15.80;10.27;;;3.30;1.20;;;;;;4971906;28;20697;-68
2024/01/30 08:22:21;;;;;;;13.33;10.00;;;3.50;1.00;;;;;;4972097;28;20656;-68
2024/01/30 08:24:46;;;;;;;13.70;8.20;;;3.60;1.00;;;;;;4973723;28;20184;-68
2024/01/30 08:27:12;;;;;;;13.43;7.83;;;3.70;1.00;;;;;;4975217;28;20290;-68
2024/01/30 08:29:37;;;;;;;10.07;7.70;;;3.90;1.00;;;;;;4975153;28;20182;-68
2024/01/30 08:32:05;;;;;;;15.10;7.50;;;4.10;1.00;;;;;;4975340;28;20180;-68
2024/01/30 08:34:31;;;;;;;11.10;6.97;;;4.20;1.00;;;;;;4975109;28;20184;-68
2024/01/30 08:36:56;;;;;;;8.63;7.23;;;4.40;1.00;;;;;;4974843;28;20824;-68
2024/01/30 08:39:22;;;;;;;12.00;7.83;;;4.50;1.00;;;;;;4975197;28;20180;-68
2024/01/30 08:41:47;;;;;;;11.53;7.30;;;4.60;1.00;;;;;;4975180;28;20184;-68
2024/01/30 08:44:13;;;;;;;12.30;7.77;;;4.80;1.00;;;;;;4974988;28;20662;-67
2024/01/30 08:46:38;;;;;;;9.63;7.40;;;4.90;1.00;;;;;;4974675;28;20555;-68
2024/01/30 08:49:04;;;;;;;12.40;7.20;;;5.10;1.00;;;;;;4974944;28;20709;-68
2024/01/30 08:51:30;;;;;;;12.77;7.73;;;5.30;1.00;;;;;;4974857;28;20178;-68
2024/01/30 08:53:56;;;;;;;14.50;8.70;;;5.50;1.00;;;;;;4974642;28;20421;-68
2024/01/30 08:56:21;;;;;;;9.67;6.83;;;5.60;1.00;;;;;;4974827;28;20205;-68
2024/01/30 08:58:47;;;;;;;10.53;8.00;;;5.80;1.00;;;;;;4974313;28;20676;-67
2024/01/30 09:01:12;;;;;;;11.20;8.33;;;6.00;1.00;;;;;;4974493;28;20189;-68
2024/01/30 09:03:40;;;;;;;11.57;7.90;;;6.00;1.00;;;;;;4974381;28;20194;-68
2024/01/30 09:06:12;;;;;;;7.27;6.00;;;6.10;1.00;;;;;;4974400;28;20186;-68
2024/01/30 09:08:38;;;;;;;10.90;7.33;;;6.10;1.00;;;;;;4973998;28;20531;-68
2024/01/30 09:11:14;;;;;;;14.00;8.50;;;6.20;1.00;;;;;;4974153;28;20430;-68
2024/01/30 09:13:40;;;;;;;14.03;7.37;;;6.30;1.00;;;;;;4974186;28;20499;-69
2024/01/30 09:16:06;;;;;;;10.77;7.10;;;6.30;1.00;;;;;;4973868;28;20463;-68
2024/01/30 09:18:32;;;;;;;9.07;7.70;;;6.30;1.00;;;;;;4973976;28;20521;-68
2024/01/30 09:20:58;;;;;;;12.50;7.37;;;6.40;1.00;;;;;;4972841;28;20508;-68
2024/01/30 09:23:24;;;;;;;11.17;7.57;;;6.50;1.00;;;;;;4972669;28;20723;-68
2024/01/30 09:25:50;;;;;;;10.70;7.10;;;6.50;1.00;;;;;;4973676;28;20444;-68
2024/01/30 09:28:17;;;;;;;9.27;7.73;;;6.40;1.00;;;;;;4974198;28;20458;-68
2024/01/30 09:30:42;;;;;;;14.03;8.77;;;6.50;1.00;;;;;;4974048;28;20178;-68
2024/01/30 09:33:08;;;;;;;11.13;8.27;;;6.30;1.00;;;;;;4973910;28;20424;-69
2024/01/30 09:35:33;;;;;;;16.37;7.57;;;6.40;1.00;;;;;;4973186;28;20179;-68
2024/01/30 09:37:59;;;;;;;8.67;6.23;;;6.50;1.00;;;;;;4973660;28;20216;-68
2024/01/30 09:40:25;;;;;;;9.17;6.70;;;6.60;1.00;;;;;;4973852;28;20170;-68
2024/01/30 09:42:51;;;;;;;8.23;6.10;;;6.50;1.00;;;;;;4973723;28;20406;-68
2024/01/30 09:45:23;;;;;;;7.20;5.97;;;6.40;1.00;;;;;;4973399;28;20239;-68
2024/01/30 09:47:49;;;;;;;7.73;6.20;;;6.50;1.00;;;;;;4973457;28;20459;-67
2024/01/30 09:50:15;;;;;;;9.47;7.10;;;6.70;1.00;;;;;;4973575;28;20960;-68
2024/01/30 09:52:42;;;;;;;7.13;6.40;;;6.80;1.00;;;;;;4973424;28;20181;-68
2024/01/30 09:55:08;;;;;;;7.87;6.57;;;7.10;1.00;;;;;;4973123;28;20454;-68
2024/01/30 09:57:37;;;;;;;7.40;5.53;;;7.20;1.00;;;;;;4973251;28;20478;-68
2024/01/30 10:00:04;;;;;;;7.70;6.07;;;7.40;1.00;;;;;;4973015;28;20420;-68
2024/01/30 10:02:31;;;;;;;9.37;6.80;;;7.60;1.00;;;;;;4973506;28;20411;-68
2024/01/30 10:04:57;;;;;;;8.90;6.30;;;7.70;1.00;;;;;;4973596;28;20407;-68
2024/01/30 10:07:23;;;;;;;9.30;6.43;;;8.00;1.00;;;;;;4971702;28;20478;-68
2024/01/30 10:09:49;;;;;;;10.77;6.93;;;8.20;1.00;;;;;;4973076;28;20180;-68
2024/01/30 10:12:15;;;;;;;10.50;7.70;;;8.40;1.00;;;;;;4973021;28;20176;-68
2024/01/30 10:14:42;;;;;;;7.83;6.23;;;8.50;1.00;;;;;;4973048;28;20430;-68
2024/01/30 10:17:11;;;;;;;11.40;7.87;;;8.70;1.00;;;;;;4972466;28;20534;-68
2024/01/30 10:19:41;;;;;;;9.50;7.27;;;8.90;1.00;;;;;;4972661;28;20423;-68
2024/01/30 10:22:07;;;;;;;8.17;7.37;;;9.10;1.00;;;;;;4972727;28;20420;-68
2024/01/30 10:24:36;;;;;;;12.40;7.80;;;9.20;1.00;;;;;;4972872;28;20419;-67
2024/01/30 10:27:01;;;;;;;12.10;7.57;;;9.10;1.00;;;;;;4972490;28;20451;-68
2024/01/30 10:29:27;;;;;;;7.37;6.33;;;9.20;1.00;;;;;;4972495;28;20466;-67
2024/01/30 10:32:04;;;;;;;9.43;7.17;;;9.40;1.00;;;;;;4972540;28;20170;-67
2024/01/30 10:34:30;;;;;;;8.97;6.53;;;9.50;1.00;;;;;;4972663;28;20528;-68
2024/01/30 10:37:16;;;;;;;10.33;7.27;;;9.80;1.00;;;;;;4972154;28;20790;-68
2024/01/30 10:39:43;;;;;;;12.13;8.37;;;10.10;1.00;;;;;;4972587;28;20920;-68
2024/01/30 10:42:20;;;;;;;11.63;7.63;;;10.30;1.00;;;;;;4972554;28;20412;-68
2024/01/30 10:45:15;;;;;;;9.20;7.20;;;10.50;1.00;;;;;;4972554;28;20416;-68
2024/01/30 10:47:44;;;;;;;8.87;6.93;;;10.70;1.00;;;;;;4971815;28;20479;-68
2024/01/30 10:50:10;;;;;;;16.47;7.97;;;10.90;1.00;;;;;;4972607;28;20413;-68
2024/01/30 10:52:37;;;;;;;9.93;7.73;;;10.90;1.00;;;;;;4972500;28;20428;-68
2024/01/30 10:55:06;;;;;;;9.40;8.40;;;11.00;1.00;;;;;;4972391;28;20416;-68
2024/01/30 10:57:34;;;;;;;9.83;7.97;;;11.00;1.00;;;;;;4972294;28;20467;-68
2024/01/30 11:00:01;;;;;;;16.90;8.90;;;11.10;1.00;;;;;;4972328;28;20424;-68
2024/01/30 11:02:28;;;;;;;10.90;9.60;;;11.20;1.00;;;;;;4972244;28;20947;-68
2024/01/30 11:05:00;;;;;;;10.77;9.60;;;11.40;1.00;;;;;;4972451;28;20432;-68
2024/01/30 11:07:28;;;;;;;10.30;8.60;;;11.60;1.00;;;;;;4971990;28;20462;-68
2024/01/30 11:10:02;;;;;;;18.43;8.67;;;11.80;1.00;;;;;;4972207;28;20420;-68
2024/01/30 11:12:29;;;;;;;9.10;7.90;;;12.00;1.00;;;;;;4972266;28;20408;-68
2024/01/30 11:15:09;;;;;;;8.53;7.63;;;12.10;1.00;;;;;;4972171;28;20422;-68
2024/01/30 11:17:51;;;;;;;12.57;9.23;;;12.20;1.00;;;;;;4972132;28;20467;-68
2024/01/30 11:20:22;;;;;;;10.47;9.00;;;12.40;1.00;;;;;;4972244;28;20423;-68
2024/01/30 11:22:49;;;;;;;9.47;8.20;;;12.50;1.00;;;;;;4972139;28;20507;-68
2024/01/30 11:25:16;;;;;;;13.23;8.90;;;12.60;1.00;;;;;;4971985;28;20427;-68
2024/01/30 11:27:45;;;;;;;11.63;9.30;;;12.50;1.00;;;;;;4972266;28;20490;-68
2024/01/30 11:30:21;;;;;;;10.27;8.60;;;12.50;1.00;;;;;;4971965;28;20418;-68
2024/01/30 11:33:04;;;;;;;12.83;8.03;;;12.50;1.00;;;;;;4972211;28;20505;-68
2024/01/30 11:35:33;;;;;;;10.03;7.37;;;12.50;1.00;;;;;;4971846;28;20543;-69
2024/01/30 11:38:00;;;;;;;10.93;8.63;;;12.50;1.00;;;;;;4971995;28;20466;-68
2024/01/30 11:40:30;;;;;;;16.13;8.80;;;12.40;1.00;;;;;;4971974;28;20413;-68
2024/01/30 11:42:57;;;;;;;8.97;7.23;;;12.60;1.00;;;;;;4971943;28;20420;-68
2024/01/30 11:45:23;;;;;;;7.80;6.10;;;12.80;1.00;;;;;;4971773;28;20412;-68
2024/01/30 11:47:49;;;;;;;9.43;6.30;;;12.90;1.00;;;;;;4971905;28;20501;-68
2024/01/30 11:50:15;;;;;;;8.27;6.10;;;13.10;1.00;;;;;;4971822;28;20409;-68
2024/01/30 11:52:42;;;;;;;9.13;6.43;;;13.20;1.00;;;;;;4972108;28;20511;-68
2024/01/30 11:55:09;;;;;;;11.93;6.40;;;13.40;1.00;;;;;;4971637;28;20512;-68
2024/01/30 11:57:36;;;;;;;6.93;6.07;;;13.10;1.00;;;;;;4971951;28;20478;-68
2024/01/30 12:00:10;;;;;;;11.90;5.97;;;13.20;1.00;;;;;;4975227;28;20503;-68
2024/01/30 12:02:39;;;;;;;6.97;6.27;;;13.20;1.00;;;;;;4975700;28;20428;-68
2024/01/30 12:05:06;;;;;;;9.40;6.37;;;13.40;1.00;;;;;;4975317;28;20806;-68
2024/01/30 12:07:32;;;;;;;7.53;6.60;;;13.60;1.00;;;;;;4975389;28;20503;-68
2024/01/30 12:09:58;;;;;;;8.00;5.80;;;13.60;1.00;;;;;;4975426;28;20432;-69
2024/01/30 12:12:25;;;;;;;7.33;5.97;;;13.50;1.00;;;;;;4975593;28;20416;-69
2024/01/30 12:14:53;;;;;;;8.00;6.57;;;13.50;1.00;;;;;;4975192;28;20297;-69
2024/01/30 12:17:29;;;;;;;5.60;5.10;;;13.70;1.00;;;;;;4974867;28;20472;-69
2024/01/30 12:20:17;;;;;;;5.93;5.33;;;13.90;1.00;;;;;;4975484;28;20920;-69
2024/01/30 12:22:45;;;;;;;4.43;4.03;;;13.90;1.00;;;;;;4975283;28;20790;-69
2024/01/30 12:25:12;;;;;;;5.50;4.90;;;14.00;1.00;;;;;;4974914;28;20428;-69
2024/01/30 12:27:39;;;;;;;5.13;4.73;;;14.00;1.00;;;;;;4975000;28;20503;-69
2024/01/30 12:30:08;;;;;;;5.43;4.90;;;14.10;1.00;;;;;;4975033;28;20455;-69
2024/01/30 12:32:39;;;;;;;5.07;4.20;;;14.20;1.00;;;;;;4975007;28;20427;-69
2024/01/30 12:35:09;;;;;;;4.97;4.50;;;14.30;1.00;;;;;;4974653;28;20932;-69
2024/01/30 12:37:35;;;;;;;5.17;4.67;;;14.30;1.00;;;;;;4974769;28;20514;-68
2024/01/30 12:40:01;;;;;;;5.17;4.70;;;14.20;1.00;;;;;;4974734;28;20534;-68
2024/01/30 12:42:27;;;;;;;4.27;3.87;;;14.00;1.00;;;;;;4974727;28;20630;-68
2024/01/30 12:44:52;;;;;;;4.97;4.50;;;14.20;1.00;;;;;;4974804;28;20412;-68
2024/01/30 12:47:18;;;;;;;5.43;4.53;;;14.40;1.00;;;;;;4974485;28;20567;-68
2024/01/30 12:49:44;;;;;;;4.67;4.20;;;14.60;1.00;;;;;;4974603;28;20210;-68
2024/01/30 12:52:11;;;;;;;4.63;4.23;;;14.90;1.00;;;;;;4973339;28;20276;-68
2024/01/30 12:54:37;;;;;;;5.30;4.37;;;15.10;1.00;;;;;;4974660;28;20451;-68